Time;durP1;ratioP1;P1;durP2;ratioP2;P2;SDS_P1;SDS_P2;PMS_P1;PMS_P2;Temp;Humidity;BMP_temperature;BMP_pressure;BME280_temperature;BME280_humidity;BME280_pressure;Samples;Min_cycle;Max_cycle;Signal;HPM_P1;HPM_P2
2021/11/25 00:01:59;;;;;;;11.70;7.40;;;1.70;88.10;;;;;;5030776;28;20041;-79
2021/11/25 00:04:25;;;;;;;12.32;7.32;;;1.70;88.30;;;;;;5017864;28;20405;-78
2021/11/25 00:06:51;;;;;;;11.48;7.00;;;1.60;88.80;;;;;;5047455;28;20021;-78
2021/11/25 00:09:17;;;;;;;11.50;7.55;;;1.60;89.30;;;;;;5014613;28;20030;-77
2021/11/25 00:11:42;;;;;;;12.77;6.90;;;1.50;89.40;;;;;;5052121;28;20419;-77
2021/11/25 00:14:08;;;;;;;10.80;6.32;;;1.50;89.20;;;;;;5041563;28;20052;-76
2021/11/25 00:16:34;;;;;;;11.75;6.78;;;1.50;89.60;;;;;;5053088;28;20021;-78
2021/11/25 00:19:00;;;;;;;11.02;6.38;;;1.50;89.50;;;;;;5054121;28;20080;-78
2021/11/25 00:21:26;;;;;;;11.13;6.10;;;1.50;89.40;;;;;;5052948;28;20461;-77
2021/11/25 00:23:51;;;;;;;13.35;7.57;;;1.40;89.70;;;;;;5038072;28;20026;-78
2021/11/25 00:26:19;;;;;;;13.18;7.80;;;1.40;90.00;;;;;;5028605;28;20468;-77
2021/11/25 00:28:45;;;;;;;13.48;7.88;;;1.40;89.50;;;;;;5027431;28;20025;-77
2021/11/25 00:31:11;;;;;;;14.13;7.85;;;1.40;89.80;;;;;;5017182;28;20026;-77
2021/11/25 00:33:39;;;;;;;13.90;7.90;;;1.30;90.00;;;;;;5014812;28;20034;-77
2021/11/25 00:36:05;;;;;;;14.65;8.45;;;1.20;90.10;;;;;;5014191;28;20030;-77
2021/11/25 00:38:31;;;;;;;17.23;8.45;;;1.20;90.20;;;;;;5045933;28;20389;-76
2021/11/25 00:40:57;;;;;;;16.73;8.65;;;1.20;90.00;;;;;;5013134;28;20026;-77
2021/11/25 00:43:22;;;;;;;17.17;8.88;;;1.20;90.00;;;;;;5014504;28;20052;-77
2021/11/25 00:45:49;;;;;;;17.13;8.77;;;1.00;90.20;;;;;;5014416;28;20042;-77
2021/11/25 00:48:15;;;;;;;17.15;8.50;;;1.00;90.20;;;;;;5013697;28;20050;-77
2021/11/25 00:50:41;;;;;;;13.60;7.50;;;0.90;90.50;;;;;;5045753;28;20030;-77
2021/11/25 00:53:09;;;;;;;14.60;8.27;;;0.90;90.50;;;;;;5046240;28;20120;-78
2021/11/25 00:55:35;;;;;;;13.73;7.85;;;0.80;90.60;;;;;;5014073;28;20036;-78
2021/11/25 00:58:01;;;;;;;13.35;7.32;;;0.80;90.80;;;;;;5014149;28;20056;-78
2021/11/25 01:00:27;;;;;;;12.60;7.53;;;0.80;91.20;;;;;;5012681;28;20476;-78
2021/11/25 01:02:52;;;;;;;12.60;7.00;;;0.80;91.20;;;;;;5014117;28;20033;-78
2021/11/25 01:05:19;;;;;;;12.18;6.88;;;0.80;91.20;;;;;;5014014;28;20465;-78
2021/11/25 01:07:45;;;;;;;10.93;5.95;;;0.70;91.20;;;;;;5029261;28;20037;-76
2021/11/25 01:10:14;;;;;;;8.63;5.40;;;0.70;91.20;;;;;;5012726;28;20072;-77
2021/11/25 01:12:41;;;;;;;9.85;5.78;;;0.70;91.10;;;;;;5045785;28;20030;-76
2021/11/25 01:15:08;;;;;;;9.15;5.38;;;0.60;91.20;;;;;;5045815;28;20054;-77
2021/11/25 01:17:36;;;;;;;9.00;5.63;;;0.60;91.10;;;;;;5045599;28;20104;-79
2021/11/25 01:20:03;;;;;;;8.63;5.10;;;0.50;91.30;;;;;;5045952;28;20361;-78
2021/11/25 01:22:28;;;;;;;8.32;4.95;;;0.50;91.30;;;;;;5013818;28;20380;-78
2021/11/25 01:24:54;;;;;;;9.80;5.78;;;0.50;91.30;;;;;;5013890;28;20030;-78
2021/11/25 01:27:20;;;;;;;11.18;6.25;;;0.40;91.60;;;;;;5046041;28;20033;-77
2021/11/25 01:29:46;;;;;;;6.88;4.43;;;0.40;91.60;;;;;;5013873;28;20477;-77
2021/11/25 01:32:11;;;;;;;10.10;5.90;;;0.40;91.40;;;;;;5045469;28;20029;-77
2021/11/25 01:34:37;;;;;;;8.85;5.25;;;0.30;91.40;;;;;;5046029;28;20121;-77
2021/11/25 01:37:03;;;;;;;11.00;5.82;;;0.30;91.50;;;;;;5014053;28;20022;-78
2021/11/25 01:39:29;;;;;;;8.55;5.30;;;0.20;91.50;;;;;;5045261;28;20454;-77
2021/11/25 01:41:55;;;;;;;8.43;5.82;;;0.20;91.60;;;;;;5013482;28;20030;-78
2021/11/25 01:44:21;;;;;;;11.35;6.70;;;0.20;91.60;;;;;;5029126;28;20025;-77
2021/11/25 01:46:46;;;;;;;14.07;7.80;;;0.20;91.80;;;;;;5028584;28;20108;-80
2021/11/25 01:49:13;;;;;;;16.33;8.40;;;0.10;92.00;;;;;;5012447;28;20037;-78
2021/11/25 01:51:38;;;;;;;17.90;8.63;;;0.10;92.20;;;;;;5012443;28;20030;-78
2021/11/25 01:54:04;;;;;;;14.70;8.32;;;0.10;92.20;;;;;;5013675;28;20369;-78
2021/11/25 01:56:30;;;;;;;18.00;9.25;;;0.10;92.20;;;;;;5013725;28;20031;-77
2021/11/25 01:58:56;;;;;;;14.32;8.10;;;0.10;92.40;;;;;;5015225;28;20437;-77
2021/11/25 02:01:24;;;;;;;15.73;8.18;;;0.10;92.50;;;;;;5018765;28;20026;-77
2021/11/25 02:03:54;;;;;;;13.63;8.30;;;0.00;92.80;;;;;;5016098;28;20081;-77
2021/11/25 02:06:20;;;;;;;13.65;7.80;;;0.00;92.80;;;;;;5017483;28;20041;-77
2021/11/25 02:08:46;;;;;;;14.50;8.02;;;0.00;92.80;;;;;;5016943;28;20392;-77
2021/11/25 02:11:12;;;;;;;14.93;8.20;;;0.00;93.00;;;;;;5015773;28;20022;-77
2021/11/25 02:13:38;;;;;;;16.90;8.90;;;0.00;93.00;;;;;;5032135;28;20030;-77
2021/11/25 02:16:04;;;;;;;14.25;7.85;;;0.00;93.30;;;;;;5017294;28;20029;-77
2021/11/25 02:18:30;;;;;;;17.20;8.52;;;0.00;93.20;;;;;;5048754;28;20088;-77
2021/11/25 02:20:59;;;;;;;14.25;7.72;;;0.00;93.30;;;;;;5015541;28;20022;-77
2021/11/25 02:23:26;;;;;;;14.90;8.27;;;0.00;93.50;;;;;;5015492;28;20053;-78
2021/11/25 02:25:52;;;;;;;14.95;8.52;;;0.00;93.60;;;;;;5049013;28;20030;-77
2021/11/25 02:28:23;;;;;;;24.55;12.55;;;0.00;93.60;;;;;;5015485;28;20030;-77
2021/11/25 02:30:50;;;;;;;19.83;11.25;;;0.00;94.10;;;;;;5048629;28;20034;-77
2021/11/25 02:33:16;;;;;;;15.65;9.30;;;0.00;94.10;;;;;;5016970;28;20456;-77
2021/11/25 02:35:43;;;;;;;16.67;8.82;;;0.10;93.90;;;;;;5048260;28;20062;-76
2021/11/25 02:38:11;;;;;;;17.05;8.85;;;0.10;93.70;;;;;;5016253;28;20034;-76
2021/11/25 02:41:03;;;;;;;14.55;8.05;;;0.10;94.10;;;;;;5016567;28;20093;-76
2021/11/25 02:43:31;;;;;;;15.55;8.43;;;0.20;94.10;;;;;;5045776;28;20038;-77
2021/11/25 02:46:05;;;;;;;15.30;8.73;;;0.20;94.00;;;;;;5048125;28;20053;-77
2021/11/25 02:48:47;;;;;;;16.20;8.90;;;0.30;94.00;;;;;;5015418;28;20126;-77
2021/11/25 02:51:16;;;;;;;14.82;8.52;;;0.30;93.90;;;;;;5016144;28;20030;-76
2021/11/25 02:53:42;;;;;;;13.70;7.72;;;0.30;93.70;;;;;;5016440;28;20030;-76
2021/11/25 02:56:11;;;;;;;13.93;8.07;;;0.30;93.80;;;;;;5016462;28;20117;-77
2021/11/25 02:58:37;;;;;;;13.52;8.40;;;0.40;93.80;;;;;;5015989;28;20395;-77
2021/11/25 03:01:30;;;;;;;14.25;8.15;;;0.40;93.60;;;;;;5047887;28;20026;-77
2021/11/25 03:04:00;;;;;;;13.73;8.27;;;0.40;93.80;;;;;;5016101;28;20068;-77
2021/11/25 03:06:27;;;;;;;13.05;7.28;;;0.40;93.80;;;;;;5016035;28;20110;-76
2021/11/25 03:08:54;;;;;;;13.07;7.72;;;0.50;93.40;;;;;;5047503;28;20084;-77
2021/11/25 03:11:23;;;;;;;13.57;7.75;;;0.50;93.30;;;;;;5014266;28;20037;-77
2021/11/25 03:13:53;;;;;;;11.85;6.95;;;0.50;93.10;;;;;;5047660;28;20065;-77
2021/11/25 03:16:22;;;;;;;16.53;8.90;;;0.50;92.90;;;;;;5047776;28;20030;-78
2021/11/25 03:18:49;;;;;;;14.98;8.18;;;0.50;92.80;;;;;;5014447;28;20037;-77
2021/11/25 03:21:16;;;;;;;11.73;6.90;;;0.50;92.70;;;;;;5047533;28;20469;-77
2021/11/25 03:23:43;;;;;;;12.32;7.40;;;0.50;92.70;;;;;;5047553;28;20033;-77
2021/11/25 03:26:10;;;;;;;11.05;6.72;;;0.50;92.70;;;;;;5047631;28;20030;-77
2021/11/25 03:28:40;;;;;;;11.02;7.10;;;0.50;92.80;;;;;;5047663;28;20037;-77
2021/11/25 03:31:07;;;;;;;11.90;6.63;;;0.50;92.80;;;;;;5015773;28;20022;-77
2021/11/25 03:33:33;;;;;;;12.52;7.82;;;0.50;93.00;;;;;;5047494;28;20030;-78
2021/11/25 03:36:02;;;;;;;14.80;8.32;;;0.50;93.00;;;;;;5015676;28;20030;-78
2021/11/25 03:38:28;;;;;;;14.57;8.98;;;0.50;93.00;;;;;;5014108;28;20393;-77
2021/11/25 03:40:54;;;;;;;16.52;9.85;;;0.50;92.90;;;;;;5015382;28;20026;-77
2021/11/25 03:43:21;;;;;;;17.27;10.40;;;0.60;92.80;;;;;;5014296;28;20113;-77
2021/11/25 03:45:47;;;;;;;16.98;9.57;;;0.60;92.70;;;;;;5046729;28;20419;-77
2021/11/25 03:48:13;;;;;;;14.75;9.18;;;0.50;92.70;;;;;;5015002;28;20124;-78
2021/11/25 03:50:39;;;;;;;16.38;10.40;;;0.50;93.00;;;;;;5015205;28;20034;-77
2021/11/25 03:53:06;;;;;;;20.05;11.27;;;0.60;92.90;;;;;;5013905;28;20030;-77
2021/11/25 03:55:32;;;;;;;17.27;10.18;;;0.60;92.80;;;;;;5030363;28;20033;-77
2021/11/25 03:57:58;;;;;;;16.48;9.95;;;0.60;92.90;;;;;;4997258;28;20068;-77
2021/11/25 04:00:25;;;;;;;15.25;9.25;;;0.70;92.90;;;;;;5015279;28;20041;-76
2021/11/25 04:02:52;;;;;;;20.00;9.05;;;0.70;92.50;;;;;;5014871;28;20515;-77
2021/11/25 04:05:19;;;;;;;14.07;8.70;;;0.70;92.50;;;;;;5014721;28;20053;-78
2021/11/25 04:07:44;;;;;;;12.75;8.07;;;0.70;92.50;;;;;;5046710;28;20025;-77
2021/11/25 04:10:11;;;;;;;13.82;7.70;;;0.70;92.40;;;;;;5014841;28;20152;-77
2021/11/25 04:12:37;;;;;;;11.15;7.53;;;0.70;92.40;;;;;;5029884;28;20037;-77
2021/11/25 04:15:05;;;;;;;12.68;7.45;;;0.70;92.30;;;;;;5029623;28;20025;-77
2021/11/25 04:17:31;;;;;;;13.90;8.85;;;0.70;92.30;;;;;;5046566;28;20033;-75
2021/11/25 04:19:58;;;;;;;15.48;8.77;;;0.70;92.40;;;;;;5014911;28;20408;-77
2021/11/25 04:22:23;;;;;;;12.38;7.93;;;0.70;92.30;;;;;;5013755;28;20029;-78
2021/11/25 04:24:51;;;;;;;13.90;7.88;;;0.70;92.40;;;;;;5014181;28;20029;-77
2021/11/25 04:27:17;;;;;;;11.65;7.68;;;0.70;92.20;;;;;;5046224;28;20032;-77
2021/11/25 04:29:48;;;;;;;12.00;7.60;;;0.70;92.20;;;;;;5046248;28;20034;-77
2021/11/25 04:37:47;;;;;;;24.67;14.20;;;0.80;92.30;;;;;;5014324;28;20061;-77
2021/11/25 04:40:13;;;;;;;26.38;14.40;;;0.80;92.20;;;;;;5046482;28;20457;-77
2021/11/25 04:42:39;;;;;;;27.30;13.85;;;0.80;92.10;;;;;;5046190;28;20022;-79
2021/11/25 04:45:06;;;;;;;26.30;14.45;;;0.80;92.00;;;;;;5046159;28;20054;-79
2021/11/25 04:47:33;;;;;;;26.48;14.73;;;0.90;92.00;;;;;;5051052;28;20026;-77
2021/11/25 04:49:59;;;;;;;29.73;16.42;;;0.90;91.90;;;;;;5015413;28;20037;-78
2021/11/25 04:52:24;;;;;;;26.38;14.52;;;0.90;91.70;;;;;;5019864;28;20022;-77
2021/11/25 04:54:50;;;;;;;23.67;12.88;;;0.90;91.80;;;;;;5019567;28;20065;-77
2021/11/25 04:57:16;;;;;;;22.48;12.18;;;0.90;91.80;;;;;;5020367;28;20037;-76
2021/11/25 04:59:42;;;;;;;24.17;13.75;;;0.90;91.80;;;;;;5041809;28;20042;-76
2021/11/25 05:02:07;;;;;;;23.85;13.80;;;0.90;91.80;;;;;;5044414;28;20057;-78
2021/11/25 05:04:33;;;;;;;22.10;13.23;;;0.90;91.70;;;;;;5029365;28;20113;-78
2021/11/25 05:06:59;;;;;;;22.23;13.52;;;0.90;91.70;;;;;;5060259;28;20057;-75
2021/11/25 05:09:25;;;;;;;25.35;13.73;;;0.90;91.60;;;;;;5025429;28;20034;-77
2021/11/25 05:11:51;;;;;;;23.13;13.68;;;0.90;91.70;;;;;;5059201;28;20110;-79
2021/11/25 05:14:16;;;;;;;20.67;12.68;;;0.90;91.70;;;;;;5049994;28;20149;-77
2021/11/25 05:16:44;;;;;;;21.25;11.90;;;1.00;91.60;;;;;;5013705;28;20026;-77
2021/11/25 05:19:10;;;;;;;19.42;11.27;;;1.00;91.60;;;;;;5015348;28;20108;-77
2021/11/25 05:21:37;;;;;;;22.20;12.13;;;1.00;91.60;;;;;;5017654;28;20109;-76
2021/11/25 05:24:03;;;;;;;18.58;11.23;;;1.00;91.50;;;;;;5015577;28;20026;-76
2021/11/25 05:26:29;;;;;;;19.23;11.77;;;1.00;91.50;;;;;;5013871;28;20049;-81
2021/11/25 05:28:54;;;;;;;25.00;13.30;;;1.00;91.50;;;;;;5013615;28;20092;-76
2021/11/25 05:31:22;;;;;;;25.73;14.07;;;1.00;91.40;;;;;;5014252;28;20475;-78
2021/11/25 05:33:50;;;;;;;29.63;15.18;;;1.00;91.40;;;;;;5015914;28;20046;-77
2021/11/25 05:36:16;;;;;;;26.35;15.20;;;1.00;91.40;;;;;;5017506;28;20034;-78
2021/11/25 05:38:42;;;;;;;28.00;15.40;;;1.10;91.30;;;;;;5049491;28;20052;-77
2021/11/25 05:41:08;;;;;;;25.42;15.43;;;1.10;91.30;;;;;;5017260;28;20045;-78
2021/11/25 05:43:34;;;;;;;25.17;14.05;;;1.10;91.20;;;;;;5030883;28;20441;-81
2021/11/25 05:46:01;;;;;;;21.27;12.63;;;1.10;91.30;;;;;;5048472;28;20114;-80
2021/11/25 05:48:28;;;;;;;23.92;13.50;;;1.10;91.30;;;;;;4997864;28;20038;-77
2021/11/25 05:50:54;;;;;;;20.65;11.63;;;1.20;91.30;;;;;;5046694;28;20037;-79
2021/11/25 05:53:20;;;;;;;17.55;11.05;;;1.20;91.50;;;;;;5047266;28;20058;-82
2021/11/25 05:55:48;;;;;;;19.25;11.23;;;1.20;91.30;;;;;;5047054;28;20026;-78
2021/11/25 05:58:14;;;;;;;19.15;11.68;;;1.30;91.30;;;;;;5047101;28;20572;-78
2021/11/25 06:00:40;;;;;;;22.40;11.77;;;1.30;91.20;;;;;;5029918;28;20034;-81
2021/11/25 06:03:06;;;;;;;18.55;11.13;;;1.40;91.30;;;;;;5013827;28;20030;-79
2021/11/25 06:05:32;;;;;;;21.17;12.05;;;1.30;91.30;;;;;;5015161;28;20087;-80
2021/11/25 06:07:59;;;;;;;18.67;11.73;;;1.40;91.30;;;;;;5014691;28;20116;-79
2021/11/25 06:10:26;;;;;;;19.83;12.18;;;1.40;91.40;;;;;;5013602;28;20037;-81
2021/11/25 06:12:52;;;;;;;20.67;12.35;;;1.40;91.30;;;;;;5015689;28;20022;-80
2021/11/25 06:15:20;;;;;;;22.13;12.13;;;1.50;91.30;;;;;;5048681;28;20030;-80
2021/11/25 06:17:46;;;;;;;35.65;20.60;;;1.60;91.30;;;;;;5016435;28;20025;-77
2021/11/25 06:20:14;;;;;;;34.53;20.48;;;1.60;91.40;;;;;;5016522;28;20062;-78
2021/11/25 06:22:42;;;;;;;28.08;16.23;;;1.60;91.40;;;;;;5048214;28;20025;-77
2021/11/25 06:25:09;;;;;;;23.60;13.88;;;1.70;91.10;;;;;;5016428;28;20033;-78
2021/11/25 06:27:36;;;;;;;20.98;12.65;;;1.70;91.10;;;;;;5048173;28;20026;-80
2021/11/25 06:30:05;;;;;;;23.20;13.52;;;1.80;91.20;;;;;;5048330;28;20030;-77
2021/11/25 06:32:31;;;;;;;22.58;14.43;;;1.80;91.50;;;;;;5016446;28;20025;-77
2021/11/25 06:34:57;;;;;;;23.80;15.20;;;2.00;93.10;;;;;;5016507;28;20372;-77
2021/11/25 06:37:22;;;;;;;20.38;13.25;;;2.30;93.50;;;;;;5015030;28;20034;-77
2021/11/25 06:39:48;;;;;;;23.27;14.02;;;2.50;92.70;;;;;;5016231;28;20368;-77
2021/11/25 06:42:14;;;;;;;22.58;13.80;;;2.70;91.40;;;;;;5030276;28;20033;-79
2021/11/25 06:44:40;;;;;;;21.63;12.77;;;2.80;90.70;;;;;;5031425;28;20037;-78
2021/11/25 06:47:06;;;;;;;20.83;12.63;;;2.90;90.60;;;;;;5034983;28;20091;-78
2021/11/25 06:49:31;;;;;;;26.38;14.20;;;2.90;90.10;;;;;;5033783;28;20048;-78
2021/11/25 06:51:57;;;;;;;23.27;13.68;;;2.90;89.70;;;;;;5035122;28;20090;-76
2021/11/25 06:54:23;;;;;;;26.67;15.25;;;3.00;89.40;;;;;;5036622;28;20029;-77
2021/11/25 06:56:49;;;;;;;29.40;15.50;;;3.00;88.50;;;;;;5035493;28;20021;-79
2021/11/25 06:59:15;;;;;;;23.63;14.05;;;3.00;88.40;;;;;;5032803;28;20080;-80
2021/11/25 07:01:41;;;;;;;21.90;12.98;;;3.00;88.20;;;;;;5034293;28;20032;-78
2021/11/25 07:04:07;;;;;;;25.08;15.05;;;3.10;88.70;;;;;;5034273;28;20025;-77
2021/11/25 07:06:34;;;;;;;24.52;14.82;;;3.10;88.90;;;;;;5034306;28;20037;-78
2021/11/25 07:09:00;;;;;;;23.40;14.30;;;3.20;88.60;;;;;;5034717;28;20042;-77
2021/11/25 07:11:28;;;;;;;23.60;14.82;;;3.30;88.40;;;;;;5033082;28;20128;-78
2021/11/25 07:13:54;;;;;;;26.33;14.68;;;3.40;88.10;;;;;;5032299;28;20039;-78
2021/11/25 07:16:19;;;;;;;25.13;14.27;;;3.50;88.20;;;;;;5031872;28;20108;-79
2021/11/25 07:18:45;;;;;;;26.48;15.35;;;3.60;87.10;;;;;;5031925;28;20268;-78
2021/11/25 07:21:11;;;;;;;26.70;14.60;;;3.60;86.50;;;;;;5031913;28;20041;-77
2021/11/25 07:23:37;;;;;;;24.52;14.32;;;3.70;86.00;;;;;;5031715;28;20025;-77
2021/11/25 07:26:07;;;;;;;20.77;13.27;;;3.70;84.00;;;;;;5031817;28;20026;-78
2021/11/25 07:28:33;;;;;;;20.93;12.33;;;3.60;83.20;;;;;;5033401;28;20484;-78
2021/11/25 07:30:59;;;;;;;22.30;13.13;;;3.60;83.60;;;;;;5033034;28;20032;-77
2021/11/25 07:33:24;;;;;;;20.02;12.25;;;3.60;82.90;;;;;;5034316;28;20033;-76
2021/11/25 07:35:51;;;;;;;19.40;12.35;;;3.50;83.50;;;;;;5033820;28;20380;-76
2021/11/25 07:38:17;;;;;;;21.83;13.15;;;3.50;84.10;;;;;;5033735;28;20083;-77
2021/11/25 07:40:44;;;;;;;22.00;12.38;;;3.50;84.30;;;;;;5033697;28;20083;-77
2021/11/25 07:43:11;;;;;;;20.52;12.18;;;3.50;84.20;;;;;;5033612;28;20036;-77
2021/11/25 07:45:37;;;;;;;17.70;10.88;;;3.60;84.00;;;;;;5034614;28;20046;-77
2021/11/25 07:48:03;;;;;;;18.30;11.07;;;3.60;84.20;;;;;;5034930;28;20109;-77
2021/11/25 07:50:30;;;;;;;19.27;11.95;;;3.60;84.50;;;;;;5035024;28;20031;-77
2021/11/25 07:52:57;;;;;;;17.92;10.90;;;3.70;84.90;;;;;;5034569;28;20092;-78
2021/11/25 07:55:24;;;;;;;19.35;10.88;;;3.70;84.60;;;;;;5033602;28;20412;-77
2021/11/25 07:57:50;;;;;;;16.08;10.15;;;3.80;84.20;;;;;;5033343;28;20025;-78
2021/11/25 08:00:17;;;;;;;16.05;10.18;;;3.80;83.90;;;;;;5032999;28;20037;-77
2021/11/25 08:02:43;;;;;;;14.43;9.52;;;3.80;83.60;;;;;;5034758;28;20022;-76
2021/11/25 08:05:10;;;;;;;17.85;9.90;;;3.80;83.40;;;;;;5033918;28;20365;-77
2021/11/25 08:07:39;;;;;;;17.05;9.85;;;3.90;83.60;;;;;;5033325;28;20025;-77
2021/11/25 08:10:06;;;;;;;18.48;9.10;;;3.90;82.90;;;;;;5033191;28;20021;-79
2021/11/25 08:12:32;;;;;;;16.02;9.18;;;3.90;83.00;;;;;;5033106;28;20026;-77
2021/11/25 08:14:57;;;;;;;20.00;11.30;;;3.90;83.10;;;;;;5033346;28;20380;-77
2021/11/25 08:17:26;;;;;;;19.30;12.20;;;3.90;83.10;;;;;;5033663;28;20030;-77
2021/11/25 08:19:51;;;;;;;17.83;10.90;;;3.90;83.00;;;;;;5035351;28;20025;-77
2021/11/25 08:22:17;;;;;;;16.42;9.85;;;4.00;82.60;;;;;;5036325;28;20482;-77
2021/11/25 08:24:43;;;;;;;16.42;10.00;;;4.00;82.60;;;;;;5035437;28;20038;-78
2021/11/25 08:27:10;;;;;;;19.92;10.63;;;4.00;82.50;;;;;;5034968;28;20030;-77
2021/11/25 08:29:36;;;;;;;22.70;13.32;;;4.10;82.90;;;;;;5034252;28;20029;-77
2021/11/25 08:32:03;;;;;;;23.70;12.38;;;4.10;82.80;;;;;;5034016;28;20025;-77
2021/11/25 08:34:30;;;;;;;20.95;12.25;;;4.10;82.90;;;;;;5034023;28;20021;-77
2021/11/25 08:36:56;;;;;;;23.92;11.73;;;4.20;82.60;;;;;;5033061;28;20025;-77
2021/11/25 08:39:22;;;;;;;20.70;11.75;;;4.30;82.40;;;;;;5037044;28;20487;-77
2021/11/25 08:41:47;;;;;;;19.60;12.18;;;4.30;81.90;;;;;;5038904;28;20033;-77
2021/11/25 08:44:13;;;;;;;19.38;11.55;;;4.40;81.00;;;;;;5033783;28;20120;-78
2021/11/25 08:46:39;;;;;;;18.02;11.13;;;4.30;81.00;;;;;;5033726;28;20128;-78
2021/11/25 08:49:05;;;;;;;18.60;11.35;;;4.40;80.60;;;;;;5033809;28;20064;-77
2021/11/25 08:51:31;;;;;;;16.05;10.18;;;4.40;80.50;;;;;;5032507;28;20037;-77
2021/11/25 08:54:00;;;;;;;17.60;10.05;;;4.30;80.90;;;;;;5033822;28;20021;-77
2021/11/25 08:56:29;;;;;;;16.92;9.95;;;4.40;80.50;;;;;;5032553;28;20120;-77
2021/11/25 08:58:56;;;;;;;19.40;10.63;;;4.40;80.60;;;;;;5033342;28;20037;-78
2021/11/25 09:01:21;;;;;;;14.77;9.32;;;4.50;80.40;;;;;;5032296;28;20037;-77
2021/11/25 09:03:47;;;;;;;14.20;9.23;;;4.60;80.00;;;;;;5032635;28;20026;-77
2021/11/25 09:06:14;;;;;;;15.93;9.35;;;4.60;79.60;;;;;;5033526;28;20068;-77
2021/11/25 09:08:40;;;;;;;18.95;9.88;;;4.60;79.70;;;;;;5034500;28;20036;-77
2021/11/25 09:11:06;;;;;;;15.00;9.10;;;4.60;78.80;;;;;;5033212;28;20472;-77
2021/11/25 09:13:32;;;;;;;17.05;9.13;;;4.70;78.60;;;;;;5033771;28;20105;-77
2021/11/25 09:15:58;;;;;;;14.20;8.43;;;4.70;78.70;;;;;;5031979;28;20057;-76
2021/11/25 09:18:24;;;;;;;14.20;9.68;;;4.70;78.90;;;;;;5031875;28;20033;-77
2021/11/25 09:20:50;;;;;;;16.60;9.48;;;4.80;78.50;;;;;;5031903;28;20107;-77
2021/11/25 09:23:18;;;;;;;14.80;9.45;;;4.80;78.20;;;;;;5032979;28;20101;-76
2021/11/25 09:25:44;;;;;;;15.63;9.52;;;4.90;78.10;;;;;;5032244;28;20060;-76
2021/11/25 09:28:18;;;;;;;14.68;9.73;;;5.00;78.20;;;;;;5032200;28;20029;-78
2021/11/25 09:30:45;;;;;;;17.48;10.50;;;5.00;77.50;;;;;;5032005;28;20029;-77
2021/11/25 09:33:11;;;;;;;15.95;9.50;;;5.10;76.50;;;;;;5032212;28;20033;-77
2021/11/25 09:35:39;;;;;;;15.48;9.35;;;5.00;76.70;;;;;;5032279;28;20079;-78
2021/11/25 09:38:07;;;;;;;16.73;9.98;;;5.10;77.10;;;;;;5032211;28;20091;-77
2021/11/25 09:40:34;;;;;;;15.88;10.07;;;5.20;76.80;;;;;;5032340;28;20030;-79
2021/11/25 09:43:13;;;;;;;17.58;10.50;;;5.20;77.00;;;;;;5046255;28;20033;-76
2021/11/25 09:45:41;;;;;;;15.20;9.95;;;5.30;76.30;;;;;;5048514;28;20042;-77
2021/11/25 09:48:10;;;;;;;18.98;11.95;;;5.40;75.60;;;;;;5046667;28;20034;-77
2021/11/25 09:50:39;;;;;;;18.30;10.57;;;5.40;75.40;;;;;;5048333;28;20100;-78
2021/11/25 09:53:08;;;;;;;24.00;12.65;;;5.50;75.50;;;;;;5047433;28;20040;-78
2021/11/25 09:55:36;;;;;;;19.42;11.82;;;5.70;75.40;;;;;;5048963;28;20041;-78
2021/11/25 09:58:02;;;;;;;23.33;12.18;;;5.90;75.20;;;;;;5048548;28;20033;-75
2021/11/25 10:00:29;;;;;;;21.58;12.35;;;6.10;75.20;;;;;;5036898;28;20044;-78
2021/11/25 10:02:55;;;;;;;17.75;11.10;;;6.20;74.80;;;;;;5033335;28;20030;-78
2021/11/25 10:05:21;;;;;;;18.75;10.90;;;6.40;74.60;;;;;;5031990;28;20120;-78
2021/11/25 10:07:47;;;;;;;15.85;9.82;;;6.60;74.00;;;;;;5033521;28;20022;-78
2021/11/25 10:10:31;;;;;;;16.80;10.88;;;6.80;72.50;;;;;;5032986;28;20460;-77
2021/11/25 10:13:10;;;;;;;17.33;11.45;;;6.80;71.50;;;;;;5031782;28;20487;-76
2021/11/25 10:15:38;;;;;;;18.10;12.13;;;6.80;71.30;;;;;;5032191;28;20356;-76
2021/11/25 10:18:17;;;;;;;21.17;13.38;;;6.80;70.80;;;;;;5033655;28;20372;-76
2021/11/25 10:20:51;;;;;;;17.77;11.70;;;6.70;70.30;;;;;;5034766;28;20030;-77
2021/11/25 10:23:25;;;;;;;17.20;10.35;;;6.60;69.60;;;;;;5035385;28;20400;-78
2021/11/25 10:26:10;;;;;;;16.92;10.23;;;6.50;69.40;;;;;;5036710;28;20116;-78
2021/11/25 10:28:47;;;;;;;16.10;9.63;;;6.40;69.10;;;;;;5036649;28;20549;-77
2021/11/25 10:31:22;;;;;;;15.50;10.18;;;6.30;69.40;;;;;;5036421;28;20026;-77
2021/11/25 10:36:30;;;;;;;21.90;13.65;;;6.30;70.00;;;;;;5036489;28;20087;-76
2021/11/25 10:39:09;;;;;;;20.05;13.43;;;6.30;69.30;;;;;;5035041;28;20501;-76
2021/11/25 10:41:38;;;;;;;22.98;15.27;;;6.30;69.10;;;;;;5035433;28;20102;-78
2021/11/25 10:44:23;;;;;;;21.50;14.52;;;6.20;69.30;;;;;;5034900;28;20025;-78
2021/11/25 10:47:14;;;;;;;26.05;15.27;;;6.10;68.90;;;;;;5036444;28;20057;-78
2021/11/25 10:49:48;;;;;;;20.85;13.13;;;6.20;69.30;;;;;;5032089;28;20167;-76
2021/11/25 10:52:20;;;;;;;22.95;11.43;;;6.10;69.20;;;;;;5035703;28;20437;-77
2021/11/25 10:55:15;;;;;;;19.25;11.00;;;6.10;68.80;;;;;;5035697;28;20538;-77
2021/11/25 10:57:46;;;;;;;21.98;12.10;;;6.10;68.60;;;;;;5034461;28;20100;-78
2021/11/25 11:00:22;;;;;;;19.52;12.25;;;6.20;69.70;;;;;;5051024;28;20080;-77
2021/11/25 11:02:48;;;;;;;15.38;10.60;;;6.20;68.90;;;;;;5034565;28;20037;-78
2021/11/25 11:05:21;;;;;;;16.88;10.38;;;6.30;67.80;;;;;;5035698;28;20029;-78
2021/11/25 11:07:49;;;;;;;14.10;9.07;;;6.20;66.40;;;;;;5035797;28;20191;-78
2021/11/25 11:10:22;;;;;;;17.55;11.02;;;6.20;66.90;;;;;;5034232;28;20071;-77
2021/11/25 11:15:59;;;;;;;17.25;10.43;;;6.20;66.20;;;;;;5035579;28;20439;-79
2021/11/25 11:18:45;;;;;;;24.90;14.40;;;6.20;64.40;;;;;;5035375;28;20033;-78
2021/11/25 11:21:30;;;;;;;23.95;13.93;;;6.30;63.70;;;;;;5035916;28;20037;-75
2021/11/25 11:24:05;;;;;;;19.05;12.18;;;6.80;62.50;;;;;;5033879;28;20026;-78
2021/11/25 11:26:35;;;;;;;13.90;9.60;;;7.10;61.80;;;;;;5034184;28;20026;-77
2021/11/25 11:29:01;;;;;;;11.88;8.10;;;7.20;61.00;;;;;;5034061;28;20029;-77
2021/11/25 11:31:27;;;;;;;12.07;7.38;;;7.10;59.40;;;;;;5034977;28;20029;-78
2021/11/25 11:33:53;;;;;;;9.77;7.43;;;6.90;59.40;;;;;;5035670;28;20049;-77
2021/11/25 11:36:21;;;;;;;10.40;7.55;;;6.60;59.80;;;;;;5035133;28;20029;-77
2021/11/25 11:38:49;;;;;;;13.82;7.13;;;6.40;60.30;;;;;;5033582;28;20034;-78
2021/11/25 11:41:16;;;;;;;14.60;8.18;;;6.20;61.30;;;;;;5034046;28;20519;-77
2021/11/25 11:43:43;;;;;;;15.57;8.63;;;6.00;61.60;;;;;;5035241;28;20026;-77
2021/11/25 11:46:09;;;;;;;14.00;8.85;;;5.90;62.00;;;;;;5033430;28;20128;-77
2021/11/25 11:48:35;;;;;;;15.95;9.43;;;5.80;62.90;;;;;;5035076;28;20471;-77
2021/11/25 11:51:15;;;;;;;12.77;9.07;;;5.70;63.60;;;;;;5034620;28;20025;-78
2021/11/25 11:53:43;;;;;;;13.40;8.80;;;5.70;63.90;;;;;;5034667;28;20048;-76
2021/11/25 11:56:12;;;;;;;11.38;7.85;;;5.60;63.80;;;;;;5033777;28;20033;-77
2021/11/25 11:58:40;;;;;;;11.35;7.75;;;5.50;64.20;;;;;;5034788;28;20124;-77
2021/11/25 12:01:15;;;;;;;9.75;7.45;;;5.50;64.40;;;;;;5034578;28;20041;-77
2021/11/25 12:04:11;;;;;;;10.55;7.25;;;5.50;64.60;;;;;;5034326;28;20460;-77
2021/11/25 12:06:44;;;;;;;10.50;7.28;;;5.40;65.00;;;;;;5033515;28;20037;-77
2021/11/25 12:09:21;;;;;;;12.68;7.85;;;5.50;65.00;;;;;;5033283;28;20075;-77
2021/11/25 12:12:05;;;;;;;12.32;8.10;;;5.40;65.00;;;;;;5034498;28;20061;-78
2021/11/25 12:14:32;;;;;;;14.68;9.25;;;5.50;65.20;;;;;;5033767;28;20026;-77
2021/11/25 12:17:00;;;;;;;15.93;9.68;;;5.50;65.00;;;;;;5033529;28;20034;-78
2021/11/25 12:19:37;;;;;;;16.23;8.82;;;5.50;64.90;;;;;;5033001;28;20068;-77
2021/11/25 12:22:11;;;;;;;14.65;9.10;;;5.50;64.60;;;;;;5033331;28;20030;-77
2021/11/25 12:24:57;;;;;;;14.40;8.07;;;5.50;64.90;;;;;;5033063;28;20026;-77
2021/11/25 12:27:33;;;;;;;14.50;9.15;;;5.70;65.30;;;;;;5033031;28;20036;-77
2021/11/25 12:30:01;;;;;;;14.18;9.57;;;5.90;65.10;;;;;;5033150;28;20033;-77
2021/11/25 12:32:46;;;;;;;14.27;9.13;;;6.10;65.10;;;;;;5034526;28;20117;-77
2021/11/25 12:35:12;;;;;;;15.82;9.25;;;6.30;63.90;;;;;;5034022;28;20108;-77
2021/11/25 12:37:52;;;;;;;15.07;7.95;;;6.30;63.50;;;;;;5034032;28;20026;-76
2021/11/25 12:40:21;;;;;;;12.25;7.53;;;6.20;63.80;;;;;;5032773;28;20372;-77
2021/11/25 12:43:14;;;;;;;14.20;8.30;;;6.20;64.60;;;;;;5032123;28;20506;-78
2021/11/25 12:45:46;;;;;;;13.90;7.95;;;6.00;63.80;;;;;;5032695;28;20565;-78
2021/11/25 12:48:14;;;;;;;13.43;8.23;;;5.90;64.10;;;;;;5034188;28;20083;-78
2021/11/25 12:50:58;;;;;;;14.00;8.55;;;5.80;64.30;;;;;;5032421;28;20029;-77
2021/11/25 12:53:35;;;;;;;14.73;8.80;;;5.70;64.70;;;;;;5032086;28;20033;-77
2021/11/25 12:56:16;;;;;;;12.95;8.40;;;5.60;65.30;;;;;;5032261;28;20440;-78
2021/11/25 12:58:55;;;;;;;11.80;7.55;;;5.50;65.20;;;;;;5032114;28;20026;-77
2021/11/25 13:01:26;;;;;;;11.75;7.63;;;5.40;65.40;;;;;;5032844;28;20033;-78